Time;durP1;ratioP1;P1;durP2;ratioP2;P2;SDS_P1;SDS_P2;PMS_P1;PMS_P2;Temp;Humidity;BMP_temperature;BMP_pressure;BME280_temperature;BME280_humidity;BME280_pressure;Samples;Min_cycle;Max_cycle;Signal;HPM_P1;HPM_P2
2021/06/04 00:02:06;;;;;;;;;;;13.60;99.90;;;;;;5109609;28;20275;-72
2021/06/04 00:04:33;;;;;;;;;;;13.60;99.90;;;;;;5085132;28;19940;-70
2021/06/04 00:07:00;;;;;;;;;;;13.60;99.90;;;;;;5076061;28;19998;-70
2021/06/04 00:09:27;;;;;;;;;;;13.70;99.90;;;;;;5076178;28;19915;-71
2021/06/04 00:11:57;;;;;;;;;;;13.70;99.90;;;;;;5079647;28;19908;-68
2021/06/04 00:14:26;;;;;;;;;;;13.80;99.90;;;;;;5080469;28;19916;-70
2021/06/04 00:16:57;;;;;;;;;;;13.90;99.90;;;;;;5081501;28;19962;-71
2021/06/04 00:19:26;;;;;;;;;;;14.00;99.90;;;;;;5083690;28;19908;-67
2021/06/04 00:21:54;;;;;;;;;;;14.10;99.90;;;;;;5087459;28;19912;-70
2021/06/04 00:24:22;;;;;;;;;;;14.20;99.90;;;;;;5090574;28;19916;-69
2021/06/04 00:26:49;;;;;;;;;;;14.20;99.90;;;;;;5090252;28;19931;-72
2021/06/04 00:29:16;;;;;;;;;;;14.20;99.90;;;;;;5090538;28;20013;-72
2021/06/04 00:31:43;;;;;;;;;;;14.30;99.90;;;;;;5090383;28;19908;-71
2021/06/04 00:34:12;;;;;;;;;;;14.30;99.90;;;;;;5091099;28;19909;-68
2021/06/04 00:36:39;;;;;;;;;;;14.40;99.90;;;;;;5123788;28;19913;-71
2021/06/04 00:39:07;;;;;;;;;;;14.40;99.90;;;;;;5088783;28;20251;-71
2021/06/04 00:41:48;;;;;;;;;;;14.40;99.90;;;;;;5076216;28;19961;-68
2021/06/04 00:44:16;;;;;;;;;;;14.50;99.90;;;;;;5075891;28;19921;-70
2021/06/04 00:46:43;;;;;;;;;;;14.50;99.90;;;;;;5076333;28;20286;-72
2021/06/04 00:49:10;;;;;;;;;;;14.60;99.90;;;;;;5076173;28;20386;-71
2021/06/04 00:51:57;;;;;;;;;;;14.70;99.90;;;;;;5076086;28;20051;-71
2021/06/04 00:54:25;;;;;;;;;;;14.80;99.90;;;;;;5075935;28;20003;-70
2021/06/04 00:56:52;;;;;;;;;;;14.90;99.90;;;;;;5075887;28;19921;-71
2021/06/04 00:59:26;;;;;;;;;;;15.00;99.90;;;;;;5076038;28;20011;-69
2021/06/04 01:01:53;;;;;;;;;;;15.40;99.90;;;;;;5076011;28;19956;-70
2021/06/04 01:04:22;;;;;;;;;;;15.60;99.90;;;;;;5075646;28;19923;-67
2021/06/04 01:06:55;;;;;;;;;;;15.90;99.90;;;;;;5075659;28;19909;-67
2021/06/04 01:09:29;;;;;;;;;;;16.50;99.90;;;;;;5076718;28;20318;-69
2021/06/04 01:12:05;;;;;;;;;;;16.50;99.90;;;;;;5075759;28;19915;-69
2021/06/04 01:14:50;;;;;;;;;;;16.60;99.90;;;;;;5075728;28;19913;-70
2021/06/04 01:17:34;;;;;;;;;;;16.60;99.90;;;;;;5074852;28;19908;-68
2021/06/04 01:20:08;;;;;;;;;;;16.50;99.90;;;;;;5075677;28;19944;-68
2021/06/04 01:22:40;;;;;;;;;;;16.40;99.90;;;;;;5075325;28;20384;-68
2021/06/04 01:25:25;;;;;;;;;;;16.40;99.90;;;;;;5075177;28;19909;-71
2021/06/04 01:27:53;;;;;;;;;;;16.40;99.90;;;;;;5075613;28;19964;-70
2021/06/04 01:30:26;;;;;;;;;;;16.30;99.90;;;;;;5075427;28;19908;-70
2021/06/04 01:32:56;;;;;;;;;;;16.30;99.90;;;;;;5075237;28;19924;-70
2021/06/04 01:35:27;;;;;;;;;;;16.30;99.90;;;;;;5075288;28;19944;-67
2021/06/04 01:37:54;;;;;;;;;;;16.30;99.90;;;;;;5075139;28;19908;-69
2021/06/04 01:40:32;;;;;;;;;;;16.40;99.90;;;;;;5075298;28;20547;-67
2021/06/04 01:43:00;;;;;;;;;;;16.40;99.90;;;;;;5074836;28;19917;-69
2021/06/04 01:45:31;;;;;;;;;;;16.40;99.90;;;;;;5075001;28;20019;-70
2021/06/04 01:48:01;;;;;;;;;;;16.50;99.90;;;;;;5075014;28;19909;-68
2021/06/04 01:50:31;;;;;;;;;;;16.60;99.90;;;;;;5075078;28;19932;-67
2021/06/04 01:53:00;;;;;;;;;;;16.70;99.90;;;;;;5074728;28;19962;-70
2021/06/04 01:55:30;;;;;;;;;;;16.70;99.90;;;;;;5074910;28;20065;-71
2021/06/04 01:58:09;;;;;;;;;;;16.90;99.90;;;;;;5074686;28;19916;-67
2021/06/04 02:00:36;;;;;;;;;;;17.00;99.90;;;;;;5074823;28;19909;-72
2021/06/04 02:03:04;;;;;;;;;;;17.00;99.90;;;;;;5074521;28;19916;-71
2021/06/04 02:05:33;;;;;;;;;;;17.10;99.90;;;;;;5074793;28;19908;-72
2021/06/04 02:08:00;;;;;;;;;;;17.30;99.90;;;;;;5074569;28;20371;-72
2021/06/04 02:10:31;;;;;;;;;;;17.30;99.90;;;;;;5074539;28;19909;-69
2021/06/04 02:12:58;;;;;;;;;;;17.30;99.90;;;;;;5074456;28;19916;-70
2021/06/04 02:15:29;;;;;;;;;;;17.30;99.90;;;;;;5074607;28;19909;-70
2021/06/04 02:18:02;;;;;;;;;;;17.30;99.90;;;;;;5074481;28;19908;-72
2021/06/04 02:20:32;;;;;;;;;;;17.40;99.90;;;;;;5074482;28;19908;-70
2021/06/04 02:23:07;;;;;;;;;;;17.40;99.90;;;;;;5073943;28;19923;-70
2021/06/04 02:25:33;;;;;;;;;;;17.30;99.90;;;;;;5074286;28;20007;-69
2021/06/04 02:28:14;;;;;;;;;;;17.40;99.90;;;;;;5074490;28;20003;-68
2021/06/04 02:30:50;;;;;;;;;;;17.40;99.90;;;;;;5074362;28;20355;-69
2021/06/04 02:33:18;;;;;;;;;;;17.50;99.80;;;;;;5074479;28;20333;-71
2021/06/04 02:35:52;;;;;;;;;;;17.70;98.80;;;;;;5074507;28;19995;-70
2021/06/04 02:38:21;;;;;;;;;;;17.70;98.40;;;;;;5074251;28;19924;-70
2021/06/04 02:40:51;;;;;;;;;;;17.70;98.70;;;;;;5073795;28;19923;-68
2021/06/04 02:43:23;;;;;;;;;;;17.60;98.80;;;;;;5073884;28;19967;-69
2021/06/04 02:45:55;;;;;;;;;;;17.60;99.10;;;;;;5073920;28;19967;-72
2021/06/04 02:48:23;;;;;;;;;;;17.60;99.20;;;;;;5073940;28;19912;-71
2021/06/04 02:50:57;;;;;;;;;;;17.60;99.30;;;;;;5073708;28;19962;-70
2021/06/04 02:53:29;;;;;;;;;;;17.70;98.50;;;;;;5073777;28;19969;-73
2021/06/04 02:56:11;;;;;;;;;;;17.90;98.90;;;;;;5073733;28;19909;-73
2021/06/04 02:58:39;;;;;;;;;;;17.90;98.80;;;;;;5073847;28;19909;-73
2021/06/04 03:01:07;;;;;;;;;;;18.00;97.70;;;;;;5073258;28;19913;-72
2021/06/04 03:03:34;;;;;;;;;;;18.00;98.60;;;;;;5072066;28;20010;-70
2021/06/04 03:06:01;;;;;;;;;;;17.90;98.00;;;;;;5073570;28;19915;-71
2021/06/04 03:08:32;;;;;;;;;;;17.90;97.80;;;;;;5073400;28;19912;-68
2021/06/04 03:10:59;;;;;;;;;;;18.00;97.70;;;;;;5073381;28;19908;-73
2021/06/04 03:13:28;;;;;;;;;;;18.20;97.50;;;;;;5073309;28;19909;-73
2021/06/04 03:15:56;;;;;;;;;;;18.20;97.30;;;;;;5073349;28;19938;-71
2021/06/04 03:18:28;;;;;;;;;;;18.10;98.20;;;;;;5073460;28;19908;-72
2021/06/04 03:20:55;;;;;;;;;;;18.10;97.70;;;;;;5073209;28;19915;-74
2021/06/04 03:23:24;;;;;;;;;;;18.00;97.70;;;;;;5073219;28;20328;-73
2021/06/04 03:25:53;;;;;;;;;;;18.00;97.20;;;;;;5073355;28;19912;-74
2021/06/04 03:28:23;;;;;;;;;;;17.90;97.40;;;;;;5073229;28;19912;-74
2021/06/04 03:30:50;;;;;;;;;;;18.00;97.90;;;;;;5073221;28;19908;-73
2021/06/04 03:33:20;;;;;;;;;;;17.80;98.00;;;;;;5073061;28;20334;-73
2021/06/04 03:35:47;;;;;;;;;;;17.80;98.20;;;;;;5073286;28;20298;-73
2021/06/04 03:38:16;;;;;;;;;;;17.70;97.40;;;;;;5072926;28;20321;-73
2021/06/04 03:40:43;;;;;;;;;;;17.60;98.00;;;;;;5072517;28;19991;-73
2021/06/04 03:43:11;;;;;;;;;;;17.50;96.70;;;;;;5073043;28;20011;-73
2021/06/04 03:45:39;;;;;;;;;;;17.50;97.90;;;;;;5072939;28;19999;-73
2021/06/04 03:48:07;;;;;;;;;;;17.50;97.40;;;;;;5072938;28;20355;-73
2021/06/04 03:50:36;;;;;;;;;;;17.40;97.50;;;;;;5073162;28;20003;-72
2021/06/04 03:53:07;;;;;;;;;;;17.40;97.20;;;;;;5072675;28;20366;-72
2021/06/04 03:55:34;;;;;;;;;;;17.40;97.10;;;;;;5072985;28;19908;-72
2021/06/04 03:58:01;;;;;;;;;;;17.40;97.20;;;;;;5072915;28;20286;-71
2021/06/04 04:00:33;;;;;;;;;;;17.30;97.40;;;;;;5072986;28;20370;-75
2021/06/04 04:03:00;;;;;;;;;;;17.30;97.40;;;;;;5072899;28;20018;-70
2021/06/04 04:05:27;;;;;;;;;;;17.20;98.10;;;;;;5073008;28;19908;-73
2021/06/04 04:07:54;;;;;;;;;;;17.20;98.00;;;;;;5072706;28;20073;-70
2021/06/04 04:10:22;;;;;;;;;;;17.20;97.40;;;;;;5072679;28;19909;-72
2021/06/04 04:12:49;;;;;;;;;;;17.10;97.90;;;;;;5072657;28;20386;-72
2021/06/04 04:15:18;;;;;;;;;;;17.10;97.80;;;;;;5072815;28;20221;-70
2021/06/04 04:17:45;;;;;;;;;;;17.10;97.30;;;;;;5072714;28;20383;-71
2021/06/04 04:20:14;;;;;;;;;;;17.00;97.80;;;;;;5072819;28;19912;-73
2021/06/04 04:22:41;;;;;;;;;;;17.00;97.30;;;;;;5072647;28;19912;-73
2021/06/04 04:25:08;;;;;;;;;;;17.00;97.10;;;;;;5071214;28;19912;-70
2021/06/04 04:27:35;;;;;;;;;;;16.90;98.40;;;;;;5072837;28;19916;-71
2021/06/04 04:30:02;;;;;;;;;;;16.90;97.20;;;;;;5072699;28;19913;-70
2021/06/04 04:32:28;;;;;;;;;;;16.90;97.30;;;;;;5072764;28;19987;-72
2021/06/04 04:34:55;;;;;;;;;;;16.90;97.20;;;;;;5072336;28;19912;-68
2021/06/04 04:37:22;;;;;;;;;;;16.90;96.80;;;;;;5072553;28;19919;-67
2021/06/04 04:39:49;;;;;;;;;;;16.90;96.60;;;;;;5072388;28;19909;-72
2021/06/04 04:42:17;;;;;;;;;;;16.90;96.90;;;;;;5072577;28;19916;-72
2021/06/04 04:44:46;;;;;;;;;;;16.90;96.40;;;;;;5072161;28;19934;-69
2021/06/04 04:47:15;;;;;;;;;;;16.90;96.70;;;;;;5072429;28;19908;-71
2021/06/04 04:49:41;;;;;;;;;;;16.90;96.20;;;;;;5072838;28;20252;-71
2021/06/04 04:52:11;;;;;;;;;;;16.90;97.20;;;;;;5074686;28;20030;-70
2021/06/04 04:54:40;;;;;;;;;;;16.80;96.80;;;;;;5076204;28;19908;-71
2021/06/04 04:57:06;;;;;;;;;;;16.90;96.90;;;;;;5075805;28;19909;-69
2021/06/04 04:59:34;;;;;;;;;;;16.90;97.20;;;;;;5076097;28;19916;-70
2021/06/04 05:02:01;;;;;;;;;;;16.90;97.30;;;;;;5075878;28;19919;-73
2021/06/04 05:04:28;;;;;;;;;;;16.90;96.10;;;;;;5075756;28;20326;-69
2021/06/04 05:06:54;;;;;;;;;;;16.90;96.80;;;;;;5075472;28;20346;-68
2021/06/04 05:09:21;;;;;;;;;;;16.80;97.10;;;;;;5075818;28;20030;-71
2021/06/04 05:11:48;;;;;;;;;;;16.90;96.90;;;;;;5075771;28;19962;-72
2021/06/04 05:14:15;;;;;;;;;;;17.00;96.50;;;;;;5075441;28;20259;-69
2021/06/04 05:16:42;;;;;;;;;;;17.00;96.70;;;;;;5075667;28;19958;-69
2021/06/04 05:19:08;;;;;;;;;;;17.10;95.90;;;;;;5075615;28;19908;-73
2021/06/04 05:21:36;;;;;;;;;;;17.10;95.90;;;;;;5075537;28;20026;-70
2021/06/04 05:24:03;;;;;;;;;;;17.00;96.90;;;;;;5075342;28;19920;-69
2021/06/04 05:26:30;;;;;;;;;;;17.00;96.30;;;;;;5075591;28;19917;-69
2021/06/04 05:28:57;;;;;;;;;;;16.90;96.20;;;;;;5075220;28;20350;-71
2021/06/04 05:31:24;;;;;;;;;;;16.80;96.70;;;;;;5075654;28;19908;-72
2021/06/04 05:33:52;;;;;;;;;;;16.70;97.00;;;;;;5075603;28;19909;-72
2021/06/04 05:36:34;;;;;;;;;;;16.70;97.30;;;;;;5075444;28;20422;-74
2021/06/04 05:39:06;;;;;;;;;;;16.70;97.50;;;;;;5106780;28;19919;-74
2021/06/04 05:41:33;;;;;;;;;;;16.60;96.90;;;;;;5073990;28;19909;-74
2021/06/04 05:43:59;;;;;;;;;;;16.60;97.70;;;;;;5075158;28;19920;-74
2021/06/04 05:46:26;;;;;;;;;;;16.70;97.10;;;;;;5075203;28;19915;-69
2021/06/04 05:48:53;;;;;;;;;;;16.60;97.80;;;;;;5075213;28;19916;-71
2021/06/04 05:51:21;;;;;;;;;;;16.60;97.80;;;;;;5075130;28;19916;-68
2021/06/04 05:53:49;;;;;;;;;;;16.60;97.50;;;;;;5074960;28;19916;-70
2021/06/04 05:56:16;;;;;;;;;;;16.60;97.60;;;;;;5075044;28;19913;-68
2021/06/04 05:58:44;;;;;;;;;;;16.60;97.50;;;;;;5074532;28;19943;-68
2021/06/04 06:01:14;;;;;;;;;;;16.50;97.60;;;;;;5074976;28;19908;-71
2021/06/04 06:03:41;;;;;;;;;;;16.60;97.60;;;;;;5074505;28;19916;-68
2021/06/04 06:06:08;;;;;;;;;;;16.60;97.50;;;;;;5074715;28;19909;-70
2021/06/04 06:08:35;;;;;;;;;;;16.70;97.40;;;;;;5074748;28;19919;-72
2021/06/04 06:11:02;;;;;;;;;;;16.70;97.30;;;;;;5074357;28;19987;-67
2021/06/04 06:13:29;;;;;;;;;;;16.70;97.20;;;;;;5074662;28;19909;-67
2021/06/04 06:15:56;;;;;;;;;;;16.80;97.20;;;;;;5074564;28;20460;-68
2021/06/04 06:18:23;;;;;;;;;;;16.70;97.20;;;;;;5074499;28;19915;-70
2021/06/04 06:20:50;;;;;;;;;;;16.60;96.90;;;;;;5074299;28;19908;-68
2021/06/04 06:23:20;;;;;;;;;;;16.70;96.50;;;;;;5074233;28;19923;-68
2021/06/04 06:25:55;;;;;;;;;;;16.60;96.80;;;;;;5074250;28;19970;-68
2021/06/04 06:28:23;;;;;;;;;;;16.60;96.60;;;;;;5074235;28;20276;-68
2021/06/04 06:30:49;;;;;;;;;;;16.50;96.80;;;;;;5073952;28;19909;-70
2021/06/04 06:33:16;;;;;;;;;;;16.50;97.10;;;;;;5074191;28;19915;-69
2021/06/04 06:35:52;;;;;;;;;;;16.30;96.70;;;;;;5074000;28;20493;-69
2021/06/04 06:38:19;;;;;;;;;;;16.30;96.50;;;;;;5073965;28;19915;-70
2021/06/04 06:40:46;;;;;;;;;;;16.20;96.50;;;;;;5073774;28;19916;-68
2021/06/04 06:43:13;;;;;;;;;;;16.20;96.50;;;;;;5073831;28;19917;-69
2021/06/04 06:45:40;;;;;;;;;;;16.20;96.40;;;;;;5073741;28;19921;-68
2021/06/04 06:48:07;;;;;;;;;;;16.20;96.60;;;;;;5073915;28;19988;-70
2021/06/04 06:50:35;;;;;;;;;;;16.20;97.00;;;;;;5073820;28;20367;-68
2021/06/04 06:53:03;;;;;;;;;;;16.10;97.00;;;;;;5073588;28;19919;-72
2021/06/04 06:55:30;;;;;;;;;;;16.00;97.30;;;;;;5073712;28;20374;-69
2021/06/04 06:57:57;;;;;;;;;;;16.00;97.60;;;;;;5073714;28;20046;-68
2021/06/04 07:00:27;;;;;;;;;;;15.90;97.70;;;;;;5073656;28;19909;-71
2021/06/04 07:02:53;;;;;;;;;;;15.80;98.00;;;;;;5073421;28;19916;-69
2021/06/04 07:05:21;;;;;;;;;;;15.80;98.60;;;;;;5073417;28;20371;-67
2021/06/04 07:07:48;;;;;;;;;;;15.80;98.60;;;;;;5073515;28;20319;-69
2021/06/04 07:10:17;;;;;;;;;;;15.70;98.80;;;;;;5078357;28;20382;-70
2021/06/04 07:12:44;;;;;;;;;;;15.70;98.60;;;;;;5087372;28;19909;-67
2021/06/04 07:15:12;;;;;;;;;;;15.60;99.10;;;;;;5087246;28;19955;-70
2021/06/04 07:17:39;;;;;;;;;;;15.50;99.90;;;;;;5087874;28;19916;-71
2021/06/04 07:20:07;;;;;;;;;;;15.50;99.80;;;;;;5088146;28;19909;-67
2021/06/04 07:22:34;;;;;;;;;;;15.40;99.70;;;;;;5088103;28;19920;-69
2021/06/04 07:25:03;;;;;;;;;;;15.30;99.30;;;;;;5086594;28;19960;-68
2021/06/04 07:27:30;;;;;;;;;;;15.40;99.30;;;;;;5088605;28;19951;-69
2021/06/04 07:29:56;;;;;;;;;;;15.40;98.90;;;;;;5088561;28;19909;-72
2021/06/04 07:32:23;;;;;;;;;;;15.40;97.90;;;;;;5088025;28;19945;-70
2021/06/04 07:34:50;;;;;;;;;;;15.50;98.50;;;;;;5086301;28;19936;-69
2021/06/04 07:37:16;;;;;;;;;;;15.50;97.70;;;;;;5081704;28;19916;-66
2021/06/04 07:39:44;;;;;;;;;;;15.50;97.90;;;;;;5076495;28;19912;-67
2021/06/04 07:42:12;;;;;;;;;;;15.50;97.90;;;;;;5071092;28;19916;-69
2021/06/04 07:44:39;;;;;;;;;;;15.50;98.10;;;;;;5071232;28;19920;-68
2021/06/04 07:47:07;;;;;;;;;;;15.40;98.30;;;;;;5071198;28;19909;-68
2021/06/04 07:49:35;;;;;;;;;;;15.40;98.30;;;;;;5070941;28;20145;-67
2021/06/04 07:52:02;;;;;;;;;;;15.40;98.00;;;;;;5071067;28;19919;-67
2021/06/04 07:54:29;;;;;;;;;;;15.40;99.20;;;;;;5070955;28;20391;-66
2021/06/04 07:56:56;;;;;;;;;;;15.30;98.40;;;;;;5070995;28;20298;-70
2021/06/04 07:59:23;;;;;;;;;;;15.40;98.20;;;;;;5071325;28;19909;-67
2021/06/04 08:01:50;;;;;;;;;;;15.30;98.60;;;;;;5071707;28;19910;-69
2021/06/04 08:04:17;;;;;;;;;;;15.30;97.90;;;;;;5071528;28;20429;-68
2021/06/04 08:06:43;;;;;;;;;;;15.30;99.10;;;;;;5069836;28;19958;-67
2021/06/04 08:09:11;;;;;;;;;;;15.30;97.90;;;;;;5071889;28;19912;-70
2021/06/04 08:11:40;;;;;;;;;;;15.30;97.70;;;;;;5070601;28;20385;-67
2021/06/04 08:14:08;;;;;;;;;;;15.30;98.40;;;;;;5070836;28;19908;-70
2021/06/04 08:16:36;;;;;;;;;;;15.30;97.80;;;;;;5070766;28;20434;-68
2021/06/04 08:19:03;;;;;;;;;;;15.30;97.90;;;;;;5068802;28;20290;-69
2021/06/04 08:21:36;;;;;;;;;;;15.20;98.00;;;;;;5070546;28;19916;-67
2021/06/04 08:24:04;;;;;;;;;;;15.30;98.40;;;;;;5070601;28;19943;-67
2021/06/04 08:26:32;;;;;;;;;;;15.30;98.50;;;;;;5072421;28;20230;-66
2021/06/04 08:29:00;;;;;;;;;;;15.20;98.10;;;;;;5073097;28;19908;-66
2021/06/04 08:31:28;;;;;;;;;;;15.20;98.40;;;;;;5074684;28;19970;-67
2021/06/04 08:33:55;;;;;;;;;;;15.20;98.80;;;;;;5072612;28;20320;-67
2021/06/04 08:36:23;;;;;;;;;;;15.20;98.50;;;;;;5073955;28;19917;-69
2021/06/04 08:38:50;;;;;;;;;;;15.20;98.40;;;;;;5074176;28;19908;-69
2021/06/04 08:41:37;;;;;;;;;;;15.20;98.60;;;;;;5074159;28;19915;-66
2021/06/04 08:44:13;;;;;;;;;;;15.20;99.10;;;;;;5073680;28;19924;-67
2021/06/04 08:46:41;;;;;;;;;;;15.20;99.40;;;;;;5074019;28;19922;-67
2021/06/04 08:49:11;;;;;;;;;;;15.10;98.70;;;;;;5074048;28;20393;-68
2021/06/04 08:51:47;;;;;;;;;;;15.10;98.80;;;;;;5073981;28;20008;-67
2021/06/04 08:54:32;;;;;;;;;;;15.10;99.20;;;;;;5074127;28;19970;-68
2021/06/04 08:57:13;;;;;;;;;;;15.10;99.00;;;;;;5073931;28;19940;-66
2021/06/04 08:59:41;;;;;;;;;;;15.10;99.40;;;;;;5073450;28;19999;-67
2021/06/04 09:02:20;;;;;;;;;;;15.00;99.50;;;;;;5073989;28;19999;-67
2021/06/04 09:04:54;;;;;;;;;;;15.00;99.70;;;;;;5073586;28;19923;-71
2021/06/04 09:07:30;;;;;;;;;;;15.00;99.40;;;;;;5075956;28;19909;-66
2021/06/04 09:09:59;;;;;;;;;;;15.00;99.70;;;;;;5075901;28;19908;-68
2021/06/04 09:12:38;;;;;;;;;;;15.00;99.80;;;;;;5075848;28;19923;-68
2021/06/04 09:15:06;;;;;;;;;;;15.00;99.90;;;;;;5075523;28;19916;-70
2021/06/04 09:18:02;;;;;;;;;;;15.00;99.70;;;;;;5075594;28;19963;-69
2021/06/04 09:20:37;;;;;;;;;;;14.90;99.90;;;;;;5070685;28;19915;-70
2021/06/04 09:23:07;;;;;;;;;;;14.90;99.70;;;;;;5075341;28;19962;-70
2021/06/04 09:25:34;;;;;;;;;;;14.90;99.80;;;;;;5075438;28;19955;-70
2021/06/04 09:28:10;;;;;;;;;;;14.90;99.90;;;;;;5075542;28;19913;-67
2021/06/04 09:30:37;;;;;;;;;;;14.90;99.90;;;;;;5075553;28;19909;-69
2021/06/04 09:33:12;;;;;;;;;;;14.90;99.90;;;;;;5074775;28;19999;-71
2021/06/04 09:35:53;;;;;;;;;;;14.90;99.90;;;;;;5075252;28;20341;-69
2021/06/04 09:38:26;;;;;;;;;;;15.00;99.90;;;;;;5073239;28;20317;-70
2021/06/04 09:40:54;;;;;;;;;;;15.00;99.90;;;;;;5074961;28;19974;-67
2021/06/04 09:43:38;;;;;;;;;;;15.00;99.80;;;;;;5075333;28;19962;-66
2021/06/04 09:46:07;;;;;;;;;;;15.00;99.60;;;;;;5074770;28;19924;-67
2021/06/04 09:48:37;;;;;;;;;;;15.00;99.90;;;;;;5075338;28;19915;-68
2021/06/04 09:51:12;;;;;;;;;;;15.00;99.80;;;;;;5074717;28;20325;-69
2021/06/04 09:53:38;;;;;;;;;;;15.00;99.90;;;;;;5074952;28;19969;-70
2021/06/04 09:56:08;;;;;;;;;;;14.90;99.90;;;;;;5075060;28;20299;-70
2021/06/04 09:58:54;;;;;;;;;;;14.80;99.90;;;;;;5075084;28;19908;-69
2021/06/04 10:01:23;;;;;;;;;;;14.80;99.90;;;;;;5090800;28;20295;-69
2021/06/04 10:03:55;;;;;;;;;;;14.70;99.90;;;;;;5074654;28;20235;-69
2021/06/04 10:06:25;;;;;;;;;;;14.70;99.90;;;;;;5074728;28;19912;-68
2021/06/04 10:09:00;;;;;;;;;;;14.60;99.90;;;;;;5074569;28;20067;-66
2021/06/04 10:11:29;;;;;;;;;;;14.60;99.90;;;;;;5074644;28;19975;-68
2021/06/04 10:14:02;;;;;;;;;;;14.60;99.90;;;;;;5074447;28;19908;-71
2021/06/04 10:16:47;;;;;;;;;;;14.60;99.90;;;;;;5074268;28;19909;-71
2021/06/04 10:19:26;;;;;;;;;;;14.60;99.90;;;;;;5074429;28;19960;-67
2021/06/04 10:22:08;;;;;;;;;;;14.60;99.90;;;;;;5074461;28;20275;-67
2021/06/04 10:25:01;;;;;;;;;;;14.50;99.90;;;;;;5074105;28;19921;-67
2021/06/04 10:27:28;;;;;;;;;;;14.40;99.90;;;;;;5065831;28;20410;-70
2021/06/04 10:29:56;;;;;;;;;;;14.40;99.90;;;;;;5074324;28;19908;-69
2021/06/04 10:32:23;;;;;;;;;;;14.40;99.90;;;;;;5073784;28;19909;-69
2021/06/04 10:34:55;;;;;;;;;;;14.40;99.90;;;;;;5073805;28;19915;-68
2021/06/04 10:37:54;;;;;;;;;;;14.40;99.90;;;;;;5074129;28;19935;-71
2021/06/04 10:40:39;;;;;;;;;;;14.50;99.90;;;;;;5061944;28;19982;-70
2021/06/04 10:43:06;;;;;;;;;;;14.40;99.90;;;;;;5073899;28;19923;-68
2021/06/04 10:45:54;;;;;;;;;;;14.40;99.90;;;;;;5073328;28;19966;-72
2021/06/04 10:48:30;;;;;;;;;;;14.40;99.90;;;;;;5073086;28;19937;-71
2021/06/04 10:51:02;;;;;;;;;;;14.40;99.90;;;;;;5073577;28;20432;-69
2021/06/04 10:53:55;;;;;;;;;;;14.40;99.90;;;;;;5083691;28;19912;-68
2021/06/04 10:56:28;;;;;;;;;;;14.50;99.90;;;;;;5065387;28;19909;-71
2021/06/04 10:58:55;;;;;;;;;;;14.50;99.90;;;;;;5073576;28;20278;-72
2021/06/04 11:01:27;;;;;;;;;;;14.50;99.90;;;;;;5073943;28;20278;-69
2021/06/04 11:04:11;;;;;;;;;;;14.40;99.90;;;;;;5073614;28;19923;-69
2021/06/04 11:06:41;;;;;;;;;;;14.40;99.90;;;;;;5073690;28;19908;-67
2021/06/04 11:09:16;;;;;;;;;;;14.30;99.90;;;;;;5073704;28;19909;-69
2021/06/04 11:11:45;;;;;;;;;;;14.30;99.90;;;;;;5073217;28;19958;-69
2021/06/04 11:14:25;;;;;;;;;;;14.40;99.90;;;;;;5071087;28;19995;-69
2021/06/04 11:16:57;;;;;;;;;;;14.40;99.90;;;;;;5071307;28;19951;-69
2021/06/04 11:19:33;;;;;;;;;;;14.30;99.90;;;;;;5071452;28;19915;-70
2021/06/04 11:22:03;;;;;;;;;;;14.30;99.90;;;;;;5071705;28;19915;-69
2021/06/04 11:24:33;;;;;;;;;;;14.30;99.90;;;;;;5071258;28;19952;-69
2021/06/04 11:26:59;;;;;;;;;;;14.30;99.90;;;;;;5073712;28;20015;-69
2021/06/04 11:29:39;;;;;;;;;;;14.30;99.90;;;;;;5090730;28;20407;-69
2021/06/04 11:32:07;;;;;;;;;;;14.30;99.90;;;;;;5090762;28;19908;-67
2021/06/04 11:34:52;;;;;;;;;;;14.30;99.90;;;;;;5090603;28;19908;-68
2021/06/04 11:37:24;;;;;;;;;;;14.30;99.90;;;;;;5090944;28;19908;-68
2021/06/04 11:39:52;;;;;;;;;;;14.30;99.90;;;;;;5090399;28;19908;-69
2021/06/04 11:42:31;;;;;;;;;;;14.30;99.90;;;;;;5090410;28;20396;-69
2021/06/04 11:45:00;;;;;;;;;;;14.30;99.90;;;;;;5090305;28;19928;-69
2021/06/04 11:47:32;;;;;;;;;;;14.30;99.90;;;;;;5090559;28;19912;-68
2021/06/04 11:50:06;;;;;;;;;;;14.30;99.90;;;;;;5090294;28;20263;-67
2021/06/04 11:52:34;;;;;;;;;;;14.30;99.90;;;;;;5090371;28;20021;-69
2021/06/04 11:55:19;;;;;;;;;;;14.30;99.90;;;;;;5090162;28;19908;-68
2021/06/04 11:57:50;;;;;;;;;;;14.30;99.90;;;;;;5089955;28;19912;-69
2021/06/04 12:00:26;;;;;;;;;;;14.20;99.90;;;;;;5092023;28;19912;-69
2021/06/04 12:02:54;;;;;;;;;;;14.20;99.90;;;;;;5094334;28;20297;-69
2021/06/04 12:05:24;;;;;;;;;;;14.30;99.90;;;;;;5094209;28;20355;-70
2021/06/04 12:08:09;;;;;;;;;;;14.20;99.90;;;;;;5094773;28;19958;-69
2021/06/04 12:10:47;;;;;;;;;;;14.20;99.90;;;;;;5094030;28;19908;-68
2021/06/04 12:13:29;;;;;;;;;;;14.20;99.90;;;;;;5094657;28;19958;-69
2021/06/04 12:15:56;;;;;;;;;;;14.20;99.90;;;;;;5094510;28;19918;-68
2021/06/04 12:18:33;;;;;;;;;;;14.20;99.90;;;;;;5093961;28;20367;-70
2021/06/04 12:21:00;;;;;;;;;;;14.20;99.90;;;;;;5093026;28;19923;-69
2021/06/04 12:23:41;;;;;;;;;;;14.30;99.90;;;;;;5094132;28;20007;-70
2021/06/04 12:26:08;;;;;;;;;;;14.20;99.90;;;;;;5093789;28;19958;-69
2021/06/04 12:28:37;;;;;;;;;;;14.30;99.90;;;;;;5094311;28;19912;-70
2021/06/04 12:31:06;;;;;;;;;;;14.30;99.90;;;;;;5093788;28;19919;-70
2021/06/04 12:33:33;;;;;;;;;;;14.20;99.90;;;;;;5094028;28;19962;-70
2021/06/04 12:36:00;;;;;;;;;;;14.20;99.90;;;;;;5093895;28;19908;-67
2021/06/04 12:38:31;;;;;;;;;;;14.20;99.90;;;;;;5094048;28;19973;-69
2021/06/04 12:41:00;;;;;;;;;;;14.20;99.90;;;;;;5093177;28;19915;-69
2021/06/04 12:43:28;;;;;;;;;;;14.20;99.90;;;;;;5093314;28;20010;-69
2021/06/04 12:45:57;;;;;;;;;;;14.10;99.90;;;;;;5093646;28;20293;-69
2021/06/04 12:48:25;;;;;;;;;;;14.10;99.90;;;;;;5093487;28;19912;-67
2021/06/04 12:50:55;;;;;;;;;;;14.10;99.90;;;;;;5093567;28;19912;-68
2021/06/04 12:53:33;;;;;;;;;;;14.10;99.90;;;;;;5093712;28;19999;-68
2021/06/04 12:56:00;;;;;;;;;;;14.10;99.90;;;;;;5093086;28;19958;-70
2021/06/04 12:58:48;;;;;;;;;;;14.10;99.90;;;;;;5093513;28;19908;-69
2021/06/04 13:01:14;;;;;;;;;;;14.10;99.90;;;;;;5093357;28;20567;-68
2021/06/04 13:04:00;;;;;;;;;;;14.10;99.90;;;;;;5093393;28;20019;-69
2021/06/04 13:06:29;;;;;;;;;;;14.00;99.90;;;;;;5093546;28;19931;-68
2021/06/04 13:08:56;;;;;;;;;;;14.00;99.90;;;;;;5093369;28;19908;-67
2021/06/04 13:11:33;;;;;;;;;;;13.90;99.90;;;;;;5091641;28;20393;-67
2021/06/04 13:14:00;;;;;;;;;;;13.90;99.90;;;;;;5093442;28;20113;-68
2021/06/04 13:16:28;;;;;;;;;;;13.90;99.90;;;;;;5093416;28;19969;-68
2021/06/04 13:18:56;;;;;;;;;;;13.90;99.90;;;;;;5093065;28;19943;-72
2021/06/04 13:21:25;;;;;;;;;;;13.90;99.90;;;;;;5093086;28;19908;-70
2021/06/04 13:24:01;;;;;;;;;;;13.90;99.90;;;;;;5092460;28;19924;-69
2021/06/04 13:26:30;;;;;;;;;;;13.80;99.90;;;;;;5092668;28;19922;-68
2021/06/04 13:29:02;;;;;;;;;;;13.80;99.90;;;;;;5091406;28;19944;-69
2021/06/04 13:31:33;;;;;;;;;;;13.80;99.90;;;;;;5091676;28;19919;-69
2021/06/04 13:34:02;;;;;;;;;;;13.70;99.90;;;;;;5092806;28;19908;-69
2021/06/04 13:36:29;;;;;;;;;;;13.70;99.90;;;;;;5092313;28;20378;-69
2021/06/04 13:38:58;;;;;;;;;;;13.70;99.90;;;;;;5092689;28;19909;-69
2021/06/04 13:41:31;;;;;;;;;;;13.60;99.90;;;;;;5092369;28;19912;-70
2021/06/04 13:43:59;;;;;;;;;;;13.60;99.90;;;;;;5092628;28;19962;-68
2021/06/04 13:46:36;;;;;;;;;;;13.50;99.90;;;;;;5092743;28;19926;-67
2021/06/04 13:49:06;;;;;;;;;;;13.50;99.90;;;;;;5092021;28;19912;-68
2021/06/04 13:51:35;;;;;;;;;;;13.50;99.90;;;;;;5092679;28;19912;-68
2021/06/04 13:54:03;;;;;;;;;;;13.50;99.90;;;;;;5092650;28;20190;-67
2021/06/04 13:56:33;;;;;;;;;;;13.40;99.90;;;;;;5092008;28;20003;-69
2021/06/04 13:59:19;;;;;;;;;;;13.40;99.90;;;;;;5092086;28;19961;-69
2021/06/04 14:01:46;;;;;;;;;;;13.40;99.90;;;;;;5092245;28;19995;-69
2021/06/04 14:04:26;;;;;;;;;;;13.40;99.90;;;;;;5092256;28;19930;-68
2021/06/04 14:06:53;;;;;;;;;;;13.40;99.90;;;;;;5092196;28;19915;-69
2021/06/04 14:09:34;;;;;;;;;;;13.30;99.90;;;;;;5091820;28;20362;-68
2021/06/04 14:12:03;;;;;;;;;;;13.30;99.90;;;;;;5092112;28;19977;-69
2021/06/04 14:14:32;;;;;;;;;;;13.20;99.90;;;;;;5091707;28;19914;-68
2021/06/04 14:16:59;;;;;;;;;;;13.20;99.90;;;;;;5091851;28;20002;-70
2021/06/04 14:19:25;;;;;;;;;;;13.20;99.90;;;;;;5091938;28;19943;-70
2021/06/04 14:21:52;;;;;;;;;;;13.20;99.90;;;;;;5092164;28;19912;-70
2021/06/04 14:24:19;;;;;;;;;;;13.20;99.90;;;;;;5091635;28;19985;-69
2021/06/04 14:26:46;;;;;;;;;;;13.10;99.90;;;;;;5091756;28;19995;-69
2021/06/04 14:29:31;;;;;;;;;;;13.20;99.90;;;;;;5091492;28;19947;-68
2021/06/04 14:32:01;;;;;;;;;;;13.00;99.90;;;;;;5091819;28;19908;-70
2021/06/04 14:34:39;;;;;;;;;;;13.00;99.90;;;;;;5091745;28;19909;-70
2021/06/04 14:37:08;;;;;;;;;;;12.90;99.90;;;;;;5091611;28;20351;-69